createdAt,value
2023-04-10T00:00:57.199Z,7.51
2023-04-10T00:03:27.585Z,7.45
2023-04-10T00:05:57.632Z,7.39
2023-04-10T00:08:26.938Z,7.34
2023-04-10T00:10:56.121Z,7.28
2023-04-10T00:13:25.048Z,7.23
2023-04-10T00:15:53.602Z,7.17
2023-04-10T00:18:22.183Z,7.10
2023-04-10T00:20:50.815Z,7.05
2023-04-10T00:23:20.836Z,7.02
2023-04-10T00:25:49.932Z,6.98
2023-04-10T00:28:18.541Z,6.96
2023-04-10T00:30:47.174Z,6.95
2023-04-10T00:33:15.808Z,6.90
2023-04-10T00:35:44.462Z,6.84
2023-04-10T00:38:13.201Z,6.83
2023-04-10T00:40:43.377Z,6.82
2023-04-10T00:43:12.231Z,6.78
2023-04-10T00:45:41.099Z,6.75
2023-04-10T00:48:09.781Z,6.74
2023-04-10T00:50:38.155Z,6.71
2023-04-10T00:53:07.143Z,6.70
2023-04-10T00:55:35.445Z,6.68
2023-04-10T00:58:05.240Z,6.65
2023-04-10T01:00:33.822Z,6.63
2023-04-10T01:03:02.565Z,6.61
2023-04-10T01:05:36.639Z,6.59
2023-04-10T01:08:19.546Z,6.55
2023-04-10T01:10:57.184Z,6.50
2023-04-10T01:13:34.098Z,6.46
2023-04-10T01:16:10.375Z,6.42
2023-04-10T01:18:44.091Z,6.40
2023-04-10T01:21:15.896Z,6.37
2023-04-10T01:24:17.169Z,6.34
2023-04-10T01:27:02.961Z,6.35
2023-04-10T01:29:35.133Z,6.35
2023-04-10T01:32:05.937Z,6.35
2023-04-10T01:34:41.676Z,6.32
2023-04-10T01:37:13.389Z,6.30
2023-04-10T01:39:44.403Z,6.27
2023-04-10T01:42:16.014Z,6.24
2023-04-10T01:44:50.607Z,6.24
2023-04-10T01:47:20.067Z,6.22
2023-04-10T01:49:50.483Z,6.22
2023-04-10T01:52:20.299Z,6.20
2023-04-10T01:54:54.244Z,6.21
2023-04-10T01:57:30.577Z,6.22
2023-04-10T02:00:01.841Z,6.18
2023-04-10T02:02:33.119Z,6.15
2023-04-10T02:05:02.242Z,6.09
2023-04-10T02:07:37.581Z,6.02
2023-04-10T02:10:14.084Z,5.98
2023-04-10T02:12:47.805Z,5.88
2023-04-10T02:15:21.290Z,5.83
2023-04-10T02:17:52.395Z,5.78
2023-04-10T02:20:21.365Z,5.74
2023-04-10T02:22:50.751Z,5.71
2023-04-10T02:25:19.341Z,5.71
2023-04-10T02:27:48.058Z,5.70
2023-04-10T02:30:18.050Z,5.67
2023-04-10T02:32:47.074Z,5.62
2023-04-10T02:35:15.927Z,5.57
2023-04-10T02:37:46.568Z,5.52
2023-04-10T02:40:16.753Z,5.46
2023-04-10T02:42:55.599Z,5.44
2023-04-10T02:45:25.663Z,5.45
2023-04-10T02:47:54.255Z,5.45
2023-04-10T02:50:22.888Z,5.45
2023-04-10T02:52:51.525Z,5.46
2023-04-10T02:55:20.037Z,5.45
2023-04-10T02:57:48.649Z,5.46
2023-04-10T03:00:19.260Z,5.46
2023-04-10T03:03:07.334Z,5.45
2023-04-10T03:05:46.844Z,5.41
2023-04-10T03:08:17.382Z,5.40
2023-04-10T03:10:48.523Z,5.38
2023-04-10T03:13:17.295Z,5.34
2023-04-10T03:15:45.646Z,5.34
2023-04-10T03:18:15.481Z,5.35
2023-04-10T03:20:45.706Z,5.36
2023-04-10T03:23:14.329Z,5.36
2023-04-10T03:25:43.359Z,5.38
2023-04-10T03:28:12.837Z,5.38
2023-04-10T03:30:41.610Z,5.35
2023-04-10T03:33:11.073Z,5.31
2023-04-10T03:35:41.114Z,5.29
2023-04-10T03:38:09.564Z,5.24
2023-04-10T03:40:38.168Z,5.20
2023-04-10T03:43:09.745Z,5.17
2023-04-10T03:45:38.368Z,5.13
2023-04-10T03:48:07.433Z,5.11
2023-04-10T03:50:44.495Z,5.08
2023-04-10T03:53:13.136Z,5.08
2023-04-10T03:55:42.080Z,5.06
2023-04-10T03:58:12.263Z,5.06
2023-04-10T04:00:41.438Z,5.04
2023-04-10T04:03:17.910Z,5.08
2023-04-10T04:05:48.109Z,5.08
2023-04-10T04:08:42.791Z,5.07
2023-04-10T04:11:20.193Z,5.03
2023-04-10T04:14:01.316Z,4.95
2023-04-10T04:16:59.100Z,4.90
2023-04-10T04:19:27.855Z,4.86
2023-04-10T04:22:14.958Z,4.81
2023-04-10T04:25:02.868Z,4.76
2023-04-10T04:27:51.710Z,4.71
2023-04-10T04:30:35.427Z,4.67
2023-04-10T04:33:13.234Z,4.61
2023-04-10T04:35:53.116Z,4.54
2023-04-10T04:38:36.768Z,4.51
2023-04-10T04:41:24.209Z,4.50
2023-04-10T04:44:07.850Z,4.51
2023-04-10T04:46:52.632Z,4.49
2023-04-10T04:49:44.072Z,4.49
2023-04-10T04:52:12.815Z,4.47
2023-04-10T04:54:46.182Z,4.48
2023-04-10T04:57:34.361Z,4.47
2023-04-10T05:00:11.626Z,4.45
2023-04-10T05:03:00.657Z,4.44
2023-04-10T05:05:36.588Z,4.47
2023-04-10T05:08:23.342Z,4.53
2023-04-10T05:11:26.797Z,4.58
2023-04-10T05:14:13.070Z,4.66
2023-04-10T05:16:53.433Z,4.71
2023-04-10T05:19:36.853Z,4.75
2023-04-10T05:22:43.593Z,4.79
2023-04-10T05:25:37.159Z,4.84
2023-04-10T05:28:45.077Z,4.86
2023-04-10T05:31:31.821Z,4.88
2023-04-10T05:34:14.667Z,4.93
2023-04-10T05:37:01.899Z,4.98
2023-04-10T05:39:52.951Z,5.04
2023-04-10T05:42:53.598Z,5.07
2023-04-10T05:45:32.299Z,5.11
2023-04-10T05:48:26.210Z,5.15
2023-04-10T05:51:17.612Z,5.20
2023-04-10T05:54:18.661Z,5.25
2023-04-10T05:57:05.594Z,5.32
2023-04-10T05:59:52.883Z,5.39
2023-04-10T06:02:32.219Z,5.45
2023-04-10T06:05:01.890Z,5.52
2023-04-10T06:07:33.210Z,5.57
2023-04-10T06:10:02.427Z,5.65
2023-04-10T06:12:34.080Z,5.72
2023-04-10T06:15:03.854Z,5.80
2023-04-10T06:17:44.023Z,5.91
2023-04-10T06:20:13.575Z,5.98
2023-04-10T06:22:42.219Z,6.06
2023-04-10T06:25:11.299Z,6.12
2023-04-10T06:27:40.266Z,6.18
2023-04-10T06:30:12.223Z,6.23
2023-04-10T06:32:42.043Z,6.27
2023-04-10T06:35:11.498Z,6.32
2023-04-10T06:37:40.164Z,6.40
2023-04-10T06:40:10.881Z,6.48
2023-04-10T06:42:39.650Z,6.53
2023-04-10T06:45:16.610Z,6.62
2023-04-10T06:47:46.705Z,6.73
2023-04-10T06:50:15.365Z,6.83
2023-04-10T06:52:43.657Z,6.96
2023-04-10T06:55:12.940Z,7.15
2023-04-10T06:57:42.016Z,7.46
2023-04-10T07:00:12.219Z,7.78
2023-04-10T07:02:40.863Z,8.13
2023-04-10T07:05:11.284Z,8.48
2023-04-10T07:07:39.928Z,8.80
2023-04-10T07:10:10.016Z,9.04
2023-04-10T07:12:38.684Z,9.28
2023-04-10T07:15:08.777Z,9.47
2023-04-10T07:17:37.503Z,9.67
2023-04-10T07:20:07.826Z,9.86
2023-04-10T07:22:37.633Z,10.02
2023-04-10T07:25:07.140Z,10.15
2023-04-10T07:27:35.923Z,10.30
2023-04-10T07:30:04.768Z,10.54
2023-04-10T07:32:34.933Z,10.73
2023-04-10T07:35:03.829Z,10.99
2023-04-10T07:37:32.399Z,11.24
2023-04-10T07:40:02.483Z,11.49
2023-04-10T07:42:31.351Z,11.79
2023-04-10T07:45:00.166Z,12.12
2023-04-10T07:47:28.906Z,12.50
2023-04-10T07:49:57.673Z,12.85
2023-04-10T07:52:26.912Z,13.15
2023-04-10T07:54:55.659Z,13.44
2023-04-10T07:57:25.669Z,13.64
2023-04-10T07:59:54.350Z,13.73
2023-04-10T08:02:23.241Z,13.93
2023-04-10T08:04:52.293Z,14.03
2023-04-10T08:07:23.340Z,14.16
2023-04-10T08:09:52.134Z,14.33
2023-04-10T08:12:20.580Z,14.41
2023-04-10T08:14:51.715Z,14.49
2023-04-10T08:17:20.605Z,14.66
2023-04-10T08:19:49.240Z,14.96
2023-04-10T08:22:18.315Z,15.26
2023-04-10T08:24:46.757Z,15.57
2023-04-10T08:27:16.330Z,15.90
2023-04-10T08:29:45.098Z,16.18
2023-04-10T08:32:15.078Z,16.48
2023-04-10T08:34:43.818Z,16.73
2023-04-10T08:37:15.458Z,16.96
2023-04-10T08:39:44.072Z,17.06
2023-04-10T08:42:12.734Z,17.14
2023-04-10T08:44:41.771Z,17.22
2023-04-10T08:47:10.660Z,17.38
2023-04-10T08:49:48.830Z,17.58
2023-04-10T08:52:22.448Z,17.65
2023-04-10T08:54:55.976Z,17.74
2023-04-10T08:57:24.488Z,17.83
2023-04-10T08:59:54.008Z,17.99
2023-04-10T09:02:22.867Z,18.17
2023-04-10T09:04:55.250Z,18.35
2023-04-10T09:07:24.141Z,18.58
2023-04-10T09:09:52.734Z,18.73
2023-04-10T09:12:21.321Z,18.91
2023-04-10T09:14:53.328Z,19.12
2023-04-10T09:17:23.596Z,19.29
2023-04-10T09:19:55.904Z,19.46
2023-04-10T09:22:32.231Z,19.61
2023-04-10T09:25:01.925Z,19.68
2023-04-10T09:27:32.566Z,19.85
2023-04-10T09:30:01.869Z,20.06
2023-04-10T09:32:41.669Z,20.14
2023-04-10T09:35:13.523Z,20.23
2023-04-10T09:37:43.354Z,20.18
2023-04-10T09:40:23.913Z,20.06
2023-04-10T09:42:52.846Z,20.14
2023-04-10T09:45:22.549Z,20.04
2023-04-10T09:48:04.659Z,19.78
2023-04-10T09:50:40.474Z,19.57
2023-04-10T09:53:09.937Z,19.46
2023-04-10T09:55:38.920Z,19.30
2023-04-10T09:58:08.185Z,19.08
2023-04-10T10:00:41.925Z,18.92
2023-04-10T10:03:14.064Z,18.82
2023-04-10T10:05:45.961Z,18.83
2023-04-10T10:08:15.748Z,18.88
2023-04-10T10:10:48.796Z,19.07
2023-04-10T10:13:23.900Z,19.20
2023-04-10T10:16:01.775Z,19.24
2023-04-10T10:18:45.054Z,19.08
2023-04-10T10:21:15.743Z,19.04
2023-04-10T10:23:44.566Z,19.14
2023-04-10T10:26:13.635Z,19.33
2023-04-10T10:28:42.820Z,19.49
2023-04-10T10:31:12.296Z,19.84
2023-04-10T10:33:42.089Z,20.16
2023-04-10T10:36:13.753Z,20.28
2023-04-10T10:38:52.626Z,20.36
2023-04-10T10:41:30.810Z,20.51
2023-04-10T10:44:17.391Z,20.56
2023-04-10T10:46:50.971Z,20.66
2023-04-10T10:49:19.760Z,20.72
2023-04-10T10:51:50.605Z,20.70
2023-04-10T10:54:44.526Z,20.72
2023-04-10T10:57:47.773Z,20.82
2023-04-10T11:00:17.125Z,20.96
2023-04-10T11:02:46.256Z,20.98
2023-04-10T11:05:50.770Z,21.14
2023-04-10T11:08:19.541Z,21.36
2023-04-10T11:11:07.034Z,21.37
2023-04-10T11:13:37.543Z,21.22
2023-04-10T11:16:08.251Z,21.22
2023-04-10T11:19:15.016Z,21.38
2023-04-10T11:22:08.928Z,21.49
2023-04-10T11:25:02.358Z,21.56
2023-04-10T11:27:52.955Z,21.45
2023-04-10T11:30:36.387Z,21.28
2023-04-10T11:33:06.771Z,21.18
2023-04-10T11:35:35.485Z,21.07
2023-04-10T11:38:18.801Z,20.98
2023-04-10T11:41:04.490Z,20.88
2023-04-10T11:43:35.842Z,20.80
2023-04-10T11:46:07.732Z,20.80
2023-04-10T11:48:37.602Z,20.69
2023-04-10T11:51:11.893Z,20.49
2023-04-10T11:53:40.956Z,20.27
2023-04-10T11:56:18.124Z,20.21
2023-04-10T11:58:52.969Z,20.21
2023-04-10T12:01:23.758Z,20.15
2023-04-10T12:03:52.842Z,20.20
2023-04-10T12:06:21.982Z,20.29
2023-04-10T12:08:51.210Z,20.37
2023-04-10T12:11:21.372Z,20.33
2023-04-10T12:13:54.178Z,20.27
2023-04-10T12:16:22.879Z,20.23
2023-04-10T12:18:52.742Z,20.22
2023-04-10T12:21:21.946Z,20.19
2023-04-10T12:23:50.541Z,20.17
2023-04-10T12:26:19.988Z,20.07
2023-04-10T12:28:54.921Z,20.09
2023-04-10T12:31:31.184Z,20.18
2023-04-10T12:34:01.401Z,20.34
2023-04-10T12:36:33.476Z,20.54
2023-04-10T12:39:04.027Z,20.79
2023-04-10T12:41:35.343Z,20.97
2023-04-10T12:44:13.540Z,21.08
2023-04-10T12:46:43.036Z,21.20
2023-04-10T12:49:13.955Z,21.41
2023-04-10T12:51:47.640Z,21.55
2023-04-10T12:54:33.321Z,21.72
2023-04-10T12:57:04.004Z,21.78
2023-04-10T12:59:34.037Z,21.82
2023-04-10T13:02:02.444Z,21.92
2023-04-10T13:04:33.205Z,21.95
2023-04-10T13:07:02.135Z,21.88
2023-04-10T13:09:30.497Z,21.85
2023-04-10T13:11:59.088Z,21.78
2023-04-10T13:14:27.685Z,21.92
2023-04-10T13:16:57.381Z,22.05
2023-04-10T13:19:26.143Z,22.10
2023-04-10T13:21:54.720Z,21.95
2023-04-10T13:24:23.201Z,21.82
2023-04-10T13:26:51.475Z,21.76
2023-04-10T13:29:20.050Z,21.57
2023-04-10T13:31:48.358Z,21.46
2023-04-10T13:34:18.051Z,21.37
2023-04-10T13:36:46.708Z,21.39
2023-04-10T13:39:15.540Z,21.42
2023-04-10T13:41:44.102Z,21.50
2023-04-10T13:44:12.383Z,21.59
2023-04-10T13:46:41.023Z,21.63
2023-04-10T13:49:09.667Z,21.70
2023-04-10T13:51:39.369Z,21.77
2023-04-10T13:54:08.626Z,21.85
2023-04-10T13:56:37.033Z,21.95
2023-04-10T13:59:06.369Z,22.00
2023-04-10T14:01:35.124Z,22.04
2023-04-10T14:04:04.067Z,21.96
2023-04-10T14:06:32.619Z,21.87
2023-04-10T14:09:02.358Z,21.83
2023-04-10T14:11:30.718Z,21.75
2023-04-10T14:13:58.974Z,21.73
2023-04-10T14:16:27.396Z,21.69
2023-04-10T14:18:56.346Z,21.59
2023-04-10T14:21:25.105Z,21.47
2023-04-10T14:23:53.532Z,21.36
2023-04-10T14:26:23.316Z,21.32
2023-04-10T14:28:52.369Z,21.31
2023-04-10T14:31:21.545Z,21.31
2023-04-10T14:33:50.152Z,21.40
2023-04-10T14:36:18.893Z,21.48
2023-04-10T14:38:47.573Z,21.68
2023-04-10T14:41:16.387Z,21.87
2023-04-10T14:43:46.087Z,21.97
2023-04-10T14:46:14.421Z,22.10
2023-04-10T14:48:43.117Z,22.16
2023-04-10T14:51:12.933Z,22.09
2023-04-10T14:53:41.542Z,22.04
2023-04-10T14:56:13.415Z,21.85
2023-04-10T14:58:42.354Z,21.59
2023-04-10T15:01:13.869Z,21.40
2023-04-10T15:03:42.690Z,21.22
2023-04-10T15:06:11.437Z,21.09
2023-04-10T15:08:40.070Z,20.88
2023-04-10T15:11:08.898Z,20.69
2023-04-10T15:13:37.777Z,20.50
2023-04-10T15:16:08.033Z,20.33
2023-04-10T15:18:37.747Z,20.14
2023-04-10T15:21:07.324Z,20.01
2023-04-10T15:23:36.234Z,19.87
2023-04-10T15:26:04.664Z,19.79
2023-04-10T15:28:33.290Z,19.67
2023-04-10T15:31:01.915Z,19.61
2023-04-10T15:33:30.582Z,19.55
2023-04-10T15:36:00.349Z,19.54
2023-04-10T15:38:28.929Z,19.53
2023-04-10T15:40:57.629Z,19.57
2023-04-10T15:43:26.383Z,19.66
2023-04-10T15:45:55.000Z,19.76
2023-04-10T15:48:24.676Z,19.79
2023-04-10T15:50:53.370Z,19.80
2023-04-10T15:53:23.054Z,19.83
2023-04-10T15:55:51.660Z,19.85
2023-04-10T15:58:20.269Z,19.84
2023-04-10T16:00:48.845Z,19.89
2023-04-10T16:03:17.574Z,19.96
2023-04-10T16:05:46.260Z,20.00
2023-04-10T16:08:14.870Z,19.94
2023-04-10T16:10:44.553Z,19.84
2023-04-10T16:13:13.149Z,19.75
2023-04-10T16:15:41.442Z,19.65
2023-04-10T16:18:10.264Z,19.53
2023-04-10T16:20:38.601Z,19.43
2023-04-10T16:23:07.165Z,19.33
2023-04-10T16:25:35.780Z,19.26
2023-04-10T16:28:08.064Z,19.18
2023-04-10T16:30:39.541Z,19.09
2023-04-10T16:33:08.358Z,19.01
2023-04-10T16:35:36.690Z,18.90
2023-04-10T16:38:05.276Z,18.80
2023-04-10T16:40:33.870Z,18.69
2023-04-10T16:43:02.481Z,18.60
2023-04-10T16:45:32.187Z,18.50
2023-04-10T16:48:00.901Z,18.42
2023-04-10T16:50:29.215Z,18.32
2023-04-10T16:52:57.640Z,18.23
2023-04-10T16:55:26.406Z,18.14
2023-04-10T16:57:55.031Z,18.07
2023-04-10T17:00:23.448Z,18.00
2023-04-10T17:02:53.201Z,17.94
2023-04-10T17:05:21.865Z,17.87
2023-04-10T17:07:50.454Z,17.83
2023-04-10T17:10:20.162Z,17.78
2023-04-10T17:12:48.737Z,17.74
2023-04-10T17:15:17.360Z,17.71
2023-04-10T17:17:46.042Z,17.66
2023-04-10T17:20:16.113Z,17.63
2023-04-10T17:22:44.834Z,17.60
2023-04-10T17:25:13.546Z,17.57
2023-04-10T17:27:42.115Z,17.56
2023-04-10T17:30:13.937Z,17.52
2023-04-10T17:32:43.312Z,17.50
2023-04-10T17:35:11.977Z,17.46
2023-04-10T17:37:41.846Z,17.42
2023-04-10T17:40:12.286Z,17.36
2023-04-10T17:42:40.933Z,17.28
2023-04-10T17:45:10.275Z,17.23
2023-04-10T17:47:39.987Z,17.18
2023-04-10T17:50:10.573Z,17.14
2023-04-10T17:52:39.173Z,17.09
2023-04-10T17:55:10.358Z,17.04
2023-04-10T17:57:38.635Z,16.98
2023-04-10T18:00:10.134Z,16.95
2023-04-10T18:02:38.659Z,16.91
2023-04-10T18:05:08.496Z,16.87
2023-04-10T18:07:36.814Z,16.82
2023-04-10T18:10:05.683Z,16.79
2023-04-10T18:12:35.950Z,16.74
2023-04-10T18:15:04.495Z,16.71
2023-04-10T18:17:33.137Z,16.68
2023-04-10T18:20:01.794Z,16.65
2023-04-10T18:22:30.443Z,16.64
2023-04-10T18:24:58.751Z,16.62
2023-04-10T18:27:30.382Z,16.59
2023-04-10T18:30:00.220Z,16.55
2023-04-10T18:32:28.821Z,16.53
2023-04-10T18:34:57.162Z,16.51
2023-04-10T18:37:25.889Z,16.49
2023-04-10T18:39:56.921Z,16.49
2023-04-10T18:42:27.868Z,16.46
2023-04-10T18:44:56.452Z,16.44
2023-04-10T18:47:26.213Z,16.42
2023-04-10T18:49:54.781Z,16.40
2023-04-10T18:52:23.329Z,16.39
2023-04-10T18:54:51.923Z,16.36
2023-04-10T18:57:20.602Z,16.34
2023-04-10T18:59:49.155Z,16.34
2023-04-10T19:02:17.904Z,16.33
2023-04-10T19:04:47.934Z,16.32
2023-04-10T19:07:16.304Z,16.31
2023-04-10T19:09:47.901Z,16.28
2023-04-10T19:12:16.780Z,16.27
2023-04-10T19:14:45.603Z,16.23
2023-04-10T19:17:14.167Z,16.20
2023-04-10T19:19:42.919Z,16.17
2023-04-10T19:22:14.993Z,16.17
2023-04-10T19:24:43.560Z,16.15
2023-04-10T19:27:12.144Z,16.13
2023-04-10T19:29:40.574Z,16.12
2023-04-10T19:32:09.924Z,16.10
2023-04-10T19:34:38.495Z,16.09
2023-04-10T19:37:07.063Z,16.07
2023-04-10T19:39:36.859Z,16.04
2023-04-10T19:42:05.572Z,16.01
2023-04-10T19:44:37.192Z,15.97
2023-04-10T19:47:05.841Z,15.93
2023-04-10T19:49:34.734Z,15.88
2023-04-10T19:52:03.407Z,15.84
2023-04-10T19:54:32.004Z,15.81
2023-04-10T19:57:02.609Z,15.71
2023-04-10T19:59:31.382Z,15.65
2023-04-10T20:02:00.033Z,15.59
2023-04-10T20:04:28.864Z,15.58
2023-04-10T20:06:57.269Z,15.53
2023-04-10T20:09:25.976Z,15.52
2023-04-10T20:11:54.558Z,15.53
2023-04-10T20:14:24.512Z,15.56
2023-04-10T20:16:53.171Z,15.55
2023-04-10T20:19:21.748Z,15.57
2023-04-10T20:21:50.360Z,15.55
2023-04-10T20:24:18.935Z,15.47
2023-04-10T20:26:47.482Z,15.40
2023-04-10T20:29:16.131Z,15.37
2023-04-10T20:31:45.836Z,15.35
2023-04-10T20:34:14.180Z,15.35
2023-04-10T20:36:42.751Z,15.34
2023-04-10T20:39:11.337Z,15.35
2023-04-10T20:41:39.921Z,15.36
2023-04-10T20:44:08.531Z,15.37
2023-04-10T20:46:37.157Z,15.38
2023-04-10T20:49:06.877Z,15.40
2023-04-10T20:51:37.285Z,15.41
2023-04-10T20:54:06.970Z,15.41
2023-04-10T20:56:42.668Z,15.42
2023-04-10T20:59:12.356Z,15.43
2023-04-10T21:01:41.355Z,15.44
2023-04-10T21:04:11.256Z,15.47
2023-04-10T21:06:39.973Z,15.49
2023-04-10T21:09:08.254Z,15.51
2023-04-10T21:11:36.851Z,15.50
2023-04-10T21:14:05.545Z,15.51
2023-04-10T21:16:34.835Z,15.51
2023-04-10T21:19:03.498Z,15.53
2023-04-10T21:21:33.166Z,15.55
2023-04-10T21:24:01.791Z,15.55
2023-04-10T21:26:30.654Z,15.58
2023-04-10T21:28:59.247Z,15.59
2023-04-10T21:31:27.903Z,15.59
2023-04-10T21:33:56.500Z,15.61
2023-04-10T21:36:24.872Z,15.60
2023-04-10T21:38:54.685Z,15.59
2023-04-10T21:41:23.461Z,15.58
2023-04-10T21:43:52.070Z,15.57
2023-04-10T21:46:20.705Z,15.56
2023-04-10T21:48:49.306Z,15.58
2023-04-10T21:51:17.888Z,15.60
2023-04-10T21:53:46.461Z,15.60
2023-04-10T21:56:16.228Z,15.62
2023-04-10T21:58:44.972Z,15.61
2023-04-10T22:01:13.602Z,15.63
2023-04-10T22:03:41.967Z,15.64
2023-04-10T22:06:11.166Z,15.65
2023-04-10T22:08:40.143Z,15.65
2023-04-10T22:11:08.962Z,15.65
2023-04-10T22:13:38.684Z,15.64
2023-04-10T22:16:07.473Z,15.64
2023-04-10T22:18:36.071Z,15.63
2023-04-10T22:21:04.409Z,15.63
2023-04-10T22:23:33.383Z,15.65
2023-04-10T22:26:02.088Z,15.64
2023-04-10T22:28:30.541Z,15.64
2023-04-10T22:31:00.276Z,15.62
2023-04-10T22:33:28.837Z,15.50
2023-04-10T22:35:57.468Z,15.01
2023-04-10T22:38:26.082Z,14.51
2023-04-10T22:40:56.064Z,14.23
2023-04-10T22:43:24.731Z,14.13
2023-04-10T22:45:53.475Z,13.99
2023-04-10T22:48:23.223Z,13.67
2023-04-10T22:50:51.822Z,13.41
2023-04-10T22:53:20.403Z,13.26
2023-04-10T22:55:49.002Z,13.23
2023-04-10T22:58:17.550Z,13.26
2023-04-10T23:00:45.849Z,13.33
2023-04-10T23:03:14.496Z,13.41
2023-04-10T23:05:44.230Z,13.45
2023-04-10T23:08:12.567Z,13.48
2023-04-10T23:10:41.129Z,13.46
2023-04-10T23:13:09.736Z,13.30
2023-04-10T23:15:38.314Z,13.06
2023-04-10T23:18:07.288Z,12.90
2023-04-10T23:20:36.819Z,12.78
2023-04-10T23:23:06.476Z,12.71
2023-04-10T23:25:34.870Z,12.69
2023-04-10T23:28:03.748Z,12.70
2023-04-10T23:30:32.460Z,12.73
2023-04-10T23:33:02.038Z,12.74
2023-04-10T23:35:30.748Z,12.75
2023-04-10T23:37:59.327Z,12.78
2023-04-10T23:40:29.173Z,12.83
2023-04-10T23:42:57.754Z,12.87
2023-04-10T23:45:26.114Z,12.91
2023-04-10T23:47:54.703Z,12.96
2023-04-10T23:50:23.326Z,13.00
2023-04-10T23:52:52.094Z,13.02
2023-04-10T23:55:21.594Z,12.95
2023-04-10T23:57:51.592Z,12.84
